createdAt,value
2023-11-12T00:00:03.078Z,1000.6
2023-11-12T00:15:02.531Z,1000.6
2023-11-12T00:30:02.961Z,1000.5
2023-11-12T00:45:02.437Z,1000.5
2023-11-12T01:00:02.864Z,1000.3
2023-11-12T01:15:02.414Z,1000.4
2023-11-12T01:30:02.789Z,1000.3
2023-11-12T01:45:03.198Z,1000.5
2023-11-12T02:00:02.729Z,1000.2
2023-11-12T02:15:03.062Z,1000.1
2023-11-12T02:30:02.427Z,1000.1
2023-11-12T02:45:02.907Z,1000.2
2023-11-12T03:00:02.445Z,1000.1
2023-11-12T03:15:02.791Z,1000.3
2023-11-12T03:30:02.451Z,1000.3
2023-11-12T03:45:02.718Z,1000.1
2023-11-12T04:00:03.148Z,1000.0
2023-11-12T04:15:02.579Z,1000.1
2023-11-12T04:30:03.052Z,1000.1
2023-11-12T04:45:02.492Z,1000.0
2023-11-12T05:00:02.895Z,1000.2
2023-11-12T05:15:02.492Z,1000.2
2023-11-12T05:45:03.420Z,1000.4
2023-11-12T06:00:02.616Z,1000.4
2023-11-12T06:15:03.070Z,1000.5
2023-11-12T06:30:02.492Z,1000.6
2023-11-12T06:45:02.964Z,1000.7
2023-11-12T07:00:02.574Z,1000.8
2023-11-12T07:15:02.815Z,1000.9
2023-11-12T07:30:02.491Z,1001.0
2023-11-12T07:45:10.072Z,1001.1
2023-11-12T08:00:02.178Z,1001.3
2023-11-12T08:15:02.621Z,1001.4
2023-11-12T08:30:03.064Z,1001.4
2023-11-12T08:45:02.512Z,1001.4
2023-11-12T09:00:02.982Z,1001.6
2023-11-12T09:15:02.508Z,1001.8
2023-11-12T09:30:02.836Z,1001.8
2023-11-12T09:45:02.478Z,1001.9
2023-11-12T10:00:04.940Z,1001.9
2023-11-12T10:15:03.143Z,1002.0
2023-11-12T10:30:02.600Z,1001.9
2023-11-12T10:45:03.043Z,1001.7
2023-11-12T11:00:02.671Z,1001.9
2023-11-12T11:15:02.931Z,1001.8
2023-11-12T11:30:02.524Z,1001.8
2023-11-12T11:45:02.786Z,1001.7
2023-11-12T12:00:03.174Z,1001.6
2023-11-12T12:15:02.650Z,1001.6
2023-11-12T12:30:03.037Z,1001.7
2023-11-12T12:45:02.550Z,1001.8
2023-11-12T13:00:02.880Z,1001.7
2023-11-12T13:15:02.543Z,1001.7
2023-11-12T13:30:02.810Z,1001.9
2023-11-12T13:45:03.245Z,1002.1
2023-11-12T14:00:02.670Z,1002.2
2023-11-12T14:15:03.109Z,1002.1
2023-11-12T14:30:02.561Z,1002.3
2023-11-12T14:45:02.988Z,1002.4
2023-11-12T15:00:02.558Z,1002.4
2023-11-12T15:15:02.862Z,1002.6
2023-11-12T15:30:02.304Z,1002.6
2023-11-12T15:45:02.752Z,1002.7
2023-11-12T16:00:03.175Z,1002.7
2023-11-12T16:15:02.592Z,1002.7
2023-11-12T16:30:03.019Z,1002.8
2023-11-12T16:45:02.569Z,1002.9
2023-11-12T17:00:02.911Z,1003.1
2023-11-12T17:15:02.481Z,1003.2
2023-11-12T17:30:02.768Z,1003.2
2023-11-12T17:45:03.222Z,1003.4
2023-11-12T18:00:02.671Z,1003.5
2023-11-12T18:15:03.104Z,1003.4
2023-11-12T18:30:02.592Z,1003.7
2023-11-12T18:45:03.024Z,1003.7
2023-11-12T19:00:02.637Z,1003.8
2023-11-12T19:15:02.875Z,1003.9
2023-11-12T19:30:08.995Z,1004.1
2023-11-12T19:45:02.749Z,1004.2
2023-11-12T20:00:03.221Z,1004.1
2023-11-12T20:15:02.698Z,1003.7
2023-11-12T20:30:03.073Z,1003.9
2023-11-12T20:45:02.616Z,1004.4
2023-11-12T21:00:02.963Z,1004.7
2023-11-12T21:15:02.650Z,1004.6
2023-11-12T21:30:02.836Z,1004.6
2023-11-12T21:45:02.257Z,1004.4
2023-11-12T22:00:02.755Z,1004.2
2023-11-12T22:15:03.125Z,1004.1
2023-11-12T22:30:02.701Z,1004.3
2023-11-12T22:45:02.995Z,1004.9
2023-11-12T23:15:02.875Z,1005.0
2023-11-12T23:30:02.304Z,1004.9
2023-11-12T23:45:02.759Z,1004.7
